Terminal Aerodrome Forecast
Issued by NWS Billings, MT

Home | Current Version | Previous Version | Text Only | Print | Product List | Glossary On
Versions: 1 2 3 4 5 6 7 8 9 10 11 12 13 14 15 16 17 18 19 20 21 22 23 24 25 26 27 28
000
FTUS45 KBYZ 271725
TAFBIL
TAF
KBIL 271725Z 2718/2818 22016G24KT P6SM FEW110 BKN250
     FM280600 27015KT P6SM BKN120
     FM281200 27015KT P6SM VCSH FEW040 BKN060
     FM281500 32015G23KT P6SM VCSH BKN050=

USA.gov is the U.S. government's official web portal to all federal, state and local government web resources and services.